Terminal Aerodrome Forecast
Issued by NWS

Home | Current Version | Previous Version | Text Only | Print | Product List | Glossary On
Versions: 1 2 3 4 5 6 7 8 9 10 11 12 13 14 15 16 17
000
FTUS46 KSEW 260900 AAA
TAFCLM
TAF AMD
KCLM 260909Z 2609/2706 00000KT P6SM FEW021 OVC060
     FM261000 VRB03KT P6SM OVC020
     FM261400 28005KT P6SM SCT020 BKN050
     FM262200 31005KT P6SM SKC=

USA.gov is the U.S. government's official web portal to all federal, state and local government web resources and services.